Time;durP1;ratioP1;P1;durP2;ratioP2;P2;SDS_P1;SDS_P2;PMS_P1;PMS_P2;Temp;Humidity;BMP_temperature;BMP_pressure;BME280_temperature;BME280_humidity;BME280_pressure;Samples;Min_cycle;Max_cycle;Signal;HPM_P1;HPM_P2
2021/12/16 11:23:03;;;;;;;41.10;21.42;;;;;;;;;;5147878;27;20393;-80
2021/12/16 11:25:43;;;;;;;46.15;23.23;;;;;;;;;;5139384;27;20488;-82
2021/12/16 11:28:13;;;;;;;42.33;22.73;;;;;;;;;;5150645;27;20060;-82
2021/12/16 11:30:42;;;;;;;47.10;23.73;;;;;;;;;;5133838;27;20036;-81
2021/12/16 11:33:12;;;;;;;54.00;25.13;;;;;;;;;;5152919;27;20058;-79
2021/12/16 11:35:47;;;;;;;49.97;25.00;;;;;;;;;;5152055;27;20043;-82
2021/12/16 11:38:23;;;;;;;49.45;24.77;;;;;;;;;;5150938;27;20096;-82
2021/12/16 11:40:52;;;;;;;47.70;23.80;;;;;;;;;;5150814;27;20049;-81
2021/12/16 11:43:35;;;;;;;47.55;21.98;;;;;;;;;;5152275;27;20493;-81
2021/12/16 11:46:08;;;;;;;50.47;26.20;;;;;;;;;;5150854;27;20472;-82
2021/12/16 11:48:38;;;;;;;56.35;25.50;;;;;;;;;;5150872;27;20039;-81
2021/12/16 11:51:11;;;;;;;61.38;26.10;;;;;;;;;;5152573;27;20085;-82
2021/12/16 11:53:53;;;;;;;56.97;26.63;;;;;;;;;;5150833;27;20084;-81
2021/12/16 11:56:37;;;;;;;55.40;26.35;;;;;;;;;;5151939;27;20114;-81
2021/12/16 11:59:29;;;;;;;50.70;25.08;;;;;;;;;;5150776;27;20088;-81
2021/12/16 12:02:23;;;;;;;57.95;27.25;;;;;;;;;;5150481;27;20069;-79
2021/12/16 12:05:22;;;;;;;54.80;25.85;;;;;;;;;;5153767;27;20035;-79
2021/12/16 12:07:54;;;;;;;49.83;23.42;;;;;;;;;;5151221;27;20047;-80
2021/12/16 12:10:38;;;;;;;51.38;24.80;;;;;;;;;;5152896;27;20433;-80
2021/12/16 12:13:09;;;;;;;53.80;25.23;;;;;;;;;;5152845;27;20095;-80
2021/12/16 12:15:55;;;;;;;59.15;26.77;;;;;;;;;;5151796;27;20070;-81
2021/12/16 12:18:47;;;;;;;58.33;24.95;;;;;;;;;;5152119;27;20043;-82
2021/12/16 12:21:20;;;;;;;57.13;24.80;;;;;;;;;;5149561;27;20050;-82
2021/12/16 12:23:58;;;;;;;55.40;25.38;;;;;;;;;;5149629;27;20065;-82
2021/12/16 12:26:32;;;;;;;55.33;25.10;;;;;;;;;;5150111;27;20050;-82
2021/12/16 12:29:02;;;;;;;54.92;25.00;;;;;;;;;;5149665;27;20035;-83
2021/12/16 12:31:57;;;;;;;53.60;26.17;;;;;;;;;;5151018;27;20122;-82
2021/12/16 12:34:54;;;;;;;63.35;25.95;;;;;;;;;;5135830;27;20039;-82
2021/12/16 12:37:28;;;;;;;49.78;23.83;;;;;;;;;;5135932;27;20134;-83
2021/12/16 12:40:06;;;;;;;59.55;25.42;;;;;;;;;;5136910;27;20062;-82
2021/12/16 12:42:36;;;;;;;63.30;27.25;;;;;;;;;;5135950;27;20081;-82
2021/12/16 12:45:09;;;;;;;61.15;27.20;;;;;;;;;;5137499;27;20047;-83
2021/12/16 12:47:47;;;;;;;52.95;24.02;;;;;;;;;;5135753;27;20047;-83
2021/12/16 12:50:18;;;;;;;60.70;26.52;;;;;;;;;;5137020;27;20091;-82
2021/12/16 12:52:53;;;;;;;51.88;23.83;;;;;;;;;;5137015;27;20118;-83
2021/12/16 12:55:31;;;;;;;48.83;23.60;;;;;;;;;;5135617;27;20035;-82
2021/12/16 12:58:10;;;;;;;54.75;25.05;;;;;;;;;;5135504;27;20486;-82
2021/12/16 13:00:52;;;;;;;58.08;23.75;;;;;;;;;;5135292;27;20516;-83
2021/12/16 13:03:28;;;;;;;62.22;25.60;;;;;;;;;;5136680;27;20118;-83
2021/12/16 13:06:04;;;;;;;51.97;23.80;;;;;;;;;;5136674;27;20047;-81
2021/12/16 13:08:38;;;;;;;49.50;24.27;;;;;;;;;;5137017;27;20046;-81
2021/12/16 13:11:11;;;;;;;50.90;24.38;;;;;;;;;;5136747;27;20039;-81
2021/12/16 13:14:21;;;;;;;52.88;25.70;;;;;;;;;;5135201;27;20118;-80
2021/12/16 13:31:24;;;;;;;57.42;25.92;;;;;;;;;;5136166;27;20481;-82
2021/12/16 13:33:59;;;;;;;58.33;27.65;;;;;;;;;;5134780;27;20039;-82
2021/12/16 13:36:46;;;;;;;61.58;25.98;;;;;;;;;;5135882;27;20039;-82
2021/12/16 13:39:26;;;;;;;55.83;24.50;;;;;;;;;;5135980;27;20123;-83
2021/12/16 13:42:04;;;;;;;58.72;28.65;;;;;;;;;;5134762;27;20485;-83
2021/12/16 14:01:03;;;;;;;52.22;26.55;;;;;;;;;;5135565;27;20142;-82
2021/12/16 14:05:55;;;;;;;57.90;27.52;;;;;;;;;;5114923;28;20035;-82
2021/12/16 14:15:18;;;;;;;62.72;27.85;;;;;;;;;;5114948;28;20558;-78
2021/12/16 14:23:45;;;;;;;52.25;24.23;;;;;;;;;;5092795;28;20044;-86
2021/12/16 14:37:16;;;;;;;56.15;29.85;;;;;;;;;;5133434;27;20142;-82
2021/12/16 14:45:37;;;;;;;47.67;23.45;;;;;;;;;;5113960;28;20040;-78
2021/12/16 14:52:04;;;;;;;50.22;24.08;;;;;;;;;;5113579;28;20058;-82
2021/12/16 14:58:32;;;;;;;50.00;25.08;;;;;;;;;;5114155;28;20116;-81
2021/12/16 15:01:08;;;;;;;56.42;25.48;;;;;;;;;;5113322;28;20035;-82
2021/12/16 15:03:41;;;;;;;55.50;26.45;;;;;;;;;;5112457;28;20088;-82
2021/12/16 15:06:18;;;;;;;52.53;26.73;;;;;;;;;;5111858;28;20060;-83
2021/12/16 15:11:43;;;;;;;72.03;33.95;;;;;;;;;;5112237;28;20036;-80
2021/12/16 15:31:42;;;;;;;59.58;29.00;;;;;;;;;;5112205;28;20078;-80
2021/12/16 15:43:14;;;;;;;51.15;25.08;;;;;;;;;;5092732;28;20498;-76
2021/12/16 15:45:46;;;;;;;55.78;25.58;;;;;;;;;;5092111;28;20048;-84
2021/12/16 15:48:15;;;;;;;48.28;24.60;;;;;;;;;;5092111;28;20056;-84
2021/12/16 15:50:45;;;;;;;49.17;24.77;;;;;;;;;;5093008;28;20040;-83
2021/12/16 15:53:33;;;;;;;47.30;24.58;;;;;;;;;;5075797;28;20401;-83
2021/12/16 16:00:25;;;;;;;54.63;25.83;;;;;;;;;;5094623;28;20492;-85
2021/12/16 16:03:18;;;;;;;57.70;26.35;;;;;;;;;;5084992;28;20487;-85
2021/12/16 16:05:48;;;;;;;59.78;29.95;;;;;;;;;;5091981;28;20044;-86
2021/12/16 16:08:17;;;;;;;60.65;30.15;;;;;;;;;;5094238;28;20044;-85
2021/12/16 16:10:52;;;;;;;59.40;29.75;;;;;;;;;;5096436;28;20116;-86
2021/12/16 16:13:24;;;;;;;;;;;;;;;;;;5096080;28;20077;-86
2021/12/16 16:16:01;;;;;;;58.10;27.65;;;;;;;;;;5096711;28;19920;-86
2021/12/16 16:21:09;;;;;;;54.63;26.88;;;;;;;;;;5101663;28;20498;-91
2021/12/16 16:23:39;;;;;;;56.63;25.15;;;;;;;;;;5117107;28;20035;-84
2021/12/16 16:26:09;;;;;;;51.33;24.80;;;;;;;;;;5116913;28;20039;-85
2021/12/16 16:28:38;;;;;;;50.20;24.42;;;;;;;;;;5104235;28;20460;-82
2021/12/16 16:31:08;;;;;;;56.42;24.15;;;;;;;;;;5095333;28;20048;-81
2021/12/16 16:33:37;;;;;;;54.95;25.65;;;;;;;;;;5096539;28;20047;-86
2021/12/16 16:36:11;;;;;;;50.72;24.63;;;;;;;;;;5096632;28;20508;-86
2021/12/16 16:38:43;;;;;;;53.47;25.40;;;;;;;;;;5129499;27;20582;-84
2021/12/16 16:41:17;;;;;;;69.70;34.15;;;;;;;;;;5096710;28;20079;-84
2021/12/16 16:43:51;;;;;;;81.27;43.23;;;;;;;;;;5130724;27;20093;-87
2021/12/16 16:46:21;;;;;;;90.28;47.63;;;;;;;;;;5096224;28;20474;-82
2021/12/16 16:49:04;;;;;;;63.60;32.72;;;;;;;;;;5129530;27;20139;-89
2021/12/16 16:51:38;;;;;;;122.53;61.45;;;;;;;;;;5095413;28;20087;-91
2021/12/16 16:54:19;;;;;;;67.43;38.13;;;;;;;;;;5095848;28;20052;-88
2021/12/16 16:56:49;;;;;;;95.40;57.10;;;;;;;;;;5129579;27;20440;-82
2021/12/16 16:59:26;;;;;;;62.33;34.30;;;;;;;;;;5094483;28;20043;-87
2021/12/16 17:01:59;;;;;;;57.03;30.88;;;;;;;;;;5094713;28;20040;-80
2021/12/16 17:04:32;;;;;;;50.78;26.15;;;;;;;;;;5095871;28;20032;-80
2021/12/16 17:10:21;;;;;;;66.53;37.08;;;;;;;;;;5095739;28;20036;-80
2021/12/16 17:12:49;;;;;;;56.40;27.80;;;;;;;;;;5104858;28;20044;-79
2021/12/16 17:15:35;;;;;;;54.30;26.80;;;;;;;;;;5116849;28;20040;-79
2021/12/16 17:18:05;;;;;;;52.35;25.98;;;;;;;;;;5102608;28;20035;-78
2021/12/16 17:20:35;;;;;;;57.88;30.10;;;;;;;;;;5099606;28;20036;-78
2021/12/16 17:23:13;;;;;;;58.03;30.88;;;;;;;;;;5093976;28;20403;-78
2021/12/16 17:25:41;;;;;;;56.80;28.10;;;;;;;;;;5109781;28;20077;-78
2021/12/16 17:28:08;;;;;;;57.50;27.35;;;;;;;;;;5113147;28;20039;-77
2021/12/16 17:30:41;;;;;;;55.85;27.35;;;;;;;;;;5114786;27;20036;-78
2021/12/16 17:33:13;;;;;;;57.17;27.30;;;;;;;;;;5116181;28;20115;-77
2021/12/16 17:35:44;;;;;;;60.13;28.85;;;;;;;;;;5114049;28;20042;-79
2021/12/16 17:38:25;;;;;;;62.20;26.77;;;;;;;;;;5114440;28;20039;-67
2021/12/16 17:41:02;;;;;;;51.33;23.70;;;;;;;;;;5115514;28;20054;-71
2021/12/16 17:43:39;;;;;;;56.30;26.35;;;;;;;;;;5115280;28;20051;-70
2021/12/16 17:46:31;;;;;;;47.20;24.42;;;;;;;;;;5116078;28;20115;-79
2021/12/16 17:49:05;;;;;;;42.25;23.52;;;;;;;;;;5115342;28;20047;-79
2021/12/16 17:51:42;;;;;;;53.25;26.83;;;;;;;;;;5114501;28;20079;-80
2021/12/16 17:54:15;;;;;;;49.72;25.45;;;;;;;;;;5114797;28;20035;-79
2021/12/16 17:56:52;;;;;;;49.28;25.20;;;;;;;;;;5112245;28;20147;-80
2021/12/16 17:59:22;;;;;;;57.50;29.80;;;;;;;;;;5114331;28;20070;-79
2021/12/16 18:01:51;;;;;;;58.67;30.10;;;;;;;;;;5111053;28;20064;-80
2021/12/16 18:04:23;;;;;;;61.20;30.38;;;;;;;;;;5135691;27;20397;-80
2021/12/16 18:07:02;;;;;;;57.47;29.05;;;;;;;;;;5095054;28;20044;-77
2021/12/16 18:09:34;;;;;;;51.72;26.67;;;;;;;;;;5093183;28;20069;-80
2021/12/16 18:12:17;;;;;;;51.90;26.15;;;;;;;;;;5093655;28;20071;-80
2021/12/16 18:15:06;;;;;;;59.55;28.05;;;;;;;;;;5093408;28;20067;-79
2021/12/16 18:17:36;;;;;;;58.83;29.05;;;;;;;;;;5100311;28;20035;-80
2021/12/16 18:20:29;;;;;;;59.90;28.58;;;;;;;;;;5113582;28;20043;-80
2021/12/16 18:23:04;;;;;;;62.20;29.00;;;;;;;;;;5113297;28;20134;-80
2021/12/16 18:25:39;;;;;;;59.28;28.17;;;;;;;;;;5114314;28;20097;-80
2021/12/16 18:28:14;;;;;;;55.85;27.98;;;;;;;;;;5112085;28;20096;-80
2021/12/16 18:30:46;;;;;;;51.30;25.17;;;;;;;;;;5102696;28;20048;-81
2021/12/16 18:33:42;;;;;;;53.83;25.20;;;;;;;;;;5113983;28;20092;-79
2021/12/16 18:36:13;;;;;;;50.20;25.15;;;;;;;;;;5114544;28;20050;-79
2021/12/16 18:55:42;;;;;;;50.35;23.95;;;;;;;;;;5113252;28;20047;-79
2021/12/16 18:58:12;;;;;;;44.63;25.13;;;;;;;;;;5114090;28;20411;-80
2021/12/16 19:01:05;;;;;;;47.17;25.52;;;;;;;;;;5113965;28;20051;-79
2021/12/16 19:03:43;;;;;;;42.28;23.42;;;;;;;;;;5113779;28;20486;-79
2021/12/16 19:06:18;;;;;;;46.00;25.67;;;;;;;;;;5116559;28;20493;-80
2021/12/16 19:08:47;;;;;;;44.30;24.15;;;;;;;;;;5115788;28;20102;-80
2021/12/16 19:11:16;;;;;;;47.35;25.73;;;;;;;;;;5113117;28;20047;-80
2021/12/16 19:13:45;;;;;;;43.78;23.92;;;;;;;;;;5114397;28;20042;-79
2021/12/16 19:16:16;;;;;;;50.13;26.90;;;;;;;;;;5113984;28;20115;-80
2021/12/16 19:18:45;;;;;;;46.20;26.10;;;;;;;;;;5113869;28;20040;-80
2021/12/16 19:21:35;;;;;;;47.95;26.70;;;;;;;;;;5113339;28;20047;-80
2021/12/16 19:24:03;;;;;;;47.72;25.48;;;;;;;;;;5113438;28;20498;-79
2021/12/16 19:26:45;;;;;;;48.17;26.40;;;;;;;;;;5113706;28;20382;-79
2021/12/16 19:29:17;;;;;;;50.72;26.85;;;;;;;;;;5114264;28;20812;-79
2021/12/16 19:31:44;;;;;;;51.45;28.15;;;;;;;;;;5112672;28;20044;-79
2021/12/16 19:34:17;;;;;;;55.22;26.38;;;;;;;;;;5113597;28;20130;-79
2021/12/16 19:36:45;;;;;;;51.15;27.35;;;;;;;;;;5112514;28;20058;-78
2021/12/16 19:39:13;;;;;;;49.58;28.40;;;;;;;;;;5112170;28;20043;-78
2021/12/16 19:41:46;;;;;;;53.35;29.52;;;;;;;;;;5109728;28;20040;-79
2021/12/16 19:58:17;;;;;;;51.10;26.73;;;;;;;;;;5097022;28;20055;-80
2021/12/16 20:25:47;;;;;;;49.45;26.48;;;;;;;;;;5097108;28;20048;-80
2021/12/16 20:28:34;;;;;;;52.05;28.27;;;;;;;;;;5095819;28;20044;-80
2021/12/16 20:31:27;;;;;;;48.15;27.17;;;;;;;;;;5097472;28;20040;-78
2021/12/16 20:34:01;;;;;;;47.45;25.33;;;;;;;;;;5099531;28;20059;-80
2021/12/16 20:36:32;;;;;;;45.65;26.65;;;;;;;;;;5101589;28;20060;-79
2021/12/16 20:39:03;;;;;;;48.08;26.95;;;;;;;;;;5097022;28;20032;-80
2021/12/16 20:41:33;;;;;;;46.83;27.25;;;;;;;;;;5095076;28;20044;-79
2021/12/16 20:44:06;;;;;;;46.92;25.95;;;;;;;;;;5096675;28;20405;-79
2021/12/16 20:46:37;;;;;;;47.35;26.27;;;;;;;;;;5095038;28;20044;-79
2021/12/16 20:49:10;;;;;;;47.42;26.70;;;;;;;;;;5096362;28;20040;-80
2021/12/16 20:51:49;;;;;;;51.75;27.30;;;;;;;;;;5095991;28;20040;-80
2021/12/16 20:54:26;;;;;;;54.50;27.58;;;;;;;;;;5094016;28;20104;-80
2021/12/16 20:56:57;;;;;;;49.33;27.13;;;;;;;;;;5094746;28;20044;-79
2021/12/16 20:59:27;;;;;;;47.45;26.80;;;;;;;;;;5095525;28;20062;-79
2021/12/16 21:02:02;;;;;;;48.80;28.13;;;;;;;;;;5095690;28;20474;-79
2021/12/16 21:04:33;;;;;;;49.55;28.67;;;;;;;;;;5095501;28;20066;-79
2021/12/16 21:07:11;;;;;;;49.05;28.13;;;;;;;;;;5095790;28;20119;-79
2021/12/16 21:09:42;;;;;;;51.50;28.40;;;;;;;;;;5095196;28;20109;-79
2021/12/16 21:12:11;;;;;;;45.38;26.63;;;;;;;;;;5093863;28;20082;-79
2021/12/16 21:14:40;;;;;;;49.47;27.88;;;;;;;;;;5111067;27;20052;-78
2021/12/16 21:17:10;;;;;;;48.40;26.58;;;;;;;;;;5097064;28;20068;-80
2021/12/16 21:19:39;;;;;;;48.13;25.10;;;;;;;;;;5112965;28;20063;-78
2021/12/16 21:22:06;;;;;;;43.65;25.63;;;;;;;;;;5114509;28;20059;-80
2021/12/16 21:24:34;;;;;;;47.28;26.95;;;;;;;;;;5130390;27;20425;-79
2021/12/16 21:27:05;;;;;;;51.88;27.42;;;;;;;;;;5115666;28;20062;-79
2021/12/16 21:29:57;;;;;;;45.40;26.85;;;;;;;;;;5115892;28;20450;-79
2021/12/16 21:32:29;;;;;;;46.33;25.63;;;;;;;;;;5115728;28;20088;-79
2021/12/16 21:35:06;;;;;;;48.65;24.98;;;;;;;;;;5114299;28;20494;-79
2021/12/16 21:38:09;;;;;;;53.95;25.58;;;;;;;;;;5115530;27;20046;-78
2021/12/16 21:40:39;;;;;;;43.38;24.33;;;;;;;;;;5114590;28;20091;-79
2021/12/16 21:43:07;;;;;;;44.05;25.13;;;;;;;;;;5114758;28;20046;-79
2021/12/16 21:45:45;;;;;;;43.00;24.45;;;;;;;;;;5115323;28;20493;-79
2021/12/16 21:48:17;;;;;;;45.63;24.88;;;;;;;;;;5115301;28;20039;-79
2021/12/16 21:50:47;;;;;;;43.65;24.60;;;;;;;;;;5115037;28;20050;-79
2021/12/16 21:53:39;;;;;;;44.70;24.38;;;;;;;;;;5115739;28;20092;-79
2021/12/16 21:56:39;;;;;;;45.88;24.30;;;;;;;;;;5115615;28;20503;-80
2021/12/16 21:59:32;;;;;;;44.17;24.08;;;;;;;;;;5115344;28;20032;-79
2021/12/16 22:02:00;;;;;;;48.65;26.20;;;;;;;;;;5113846;28;20044;-77
2021/12/16 22:04:30;;;;;;;47.20;25.38;;;;;;;;;;5115061;28;20036;-78
2021/12/16 22:07:23;;;;;;;44.17;25.25;;;;;;;;;;5114273;28;20486;-79
2021/12/16 22:09:58;;;;;;;45.25;24.83;;;;;;;;;;5115195;28;20122;-79
2021/12/16 22:12:26;;;;;;;51.10;26.05;;;;;;;;;;5114708;28;20070;-78
2021/12/16 22:15:00;;;;;;;51.80;25.67;;;;;;;;;;5113552;28;20032;-78
2021/12/16 22:17:28;;;;;;;45.72;24.98;;;;;;;;;;5113327;28;20090;-79
2021/12/16 22:20:24;;;;;;;45.30;25.98;;;;;;;;;;5114609;28;20498;-80
2021/12/16 22:23:00;;;;;;;45.13;25.73;;;;;;;;;;5114411;28;20067;-79
2021/12/16 22:25:33;;;;;;;47.70;26.65;;;;;;;;;;5113348;28;20398;-79
2021/12/16 22:28:02;;;;;;;48.33;25.60;;;;;;;;;;5114708;28;20052;-79
2021/12/16 22:30:35;;;;;;;47.53;26.23;;;;;;;;;;5114484;28;20486;-78
2021/12/16 22:33:09;;;;;;;46.65;25.70;;;;;;;;;;5112846;28;20043;-79
2021/12/16 22:35:37;;;;;;;48.28;26.08;;;;;;;;;;5114038;28;20050;-78
2021/12/16 22:38:07;;;;;;;49.00;25.85;;;;;;;;;;5114136;28;20044;-78
2021/12/16 22:40:37;;;;;;;50.40;25.20;;;;;;;;;;5114090;28;20042;-79
2021/12/16 22:43:09;;;;;;;42.20;24.58;;;;;;;;;;5112983;28;20122;-79
2021/12/16 22:45:40;;;;;;;49.40;26.67;;;;;;;;;;5112845;28;20067;-79
2021/12/16 22:48:11;;;;;;;47.63;25.25;;;;;;;;;;5114638;28;20118;-80
2021/12/16 22:51:05;;;;;;;43.40;24.98;;;;;;;;;;5114290;28;20032;-80
2021/12/16 22:53:58;;;;;;;46.28;26.33;;;;;;;;;;5112764;28;20079;-78
2021/12/16 22:56:26;;;;;;;46.45;24.48;;;;;;;;;;5112539;28;20088;-79
2021/12/16 22:59:19;;;;;;;46.45;26.05;;;;;;;;;;5112983;28;20106;-80
2021/12/16 23:01:52;;;;;;;44.35;23.52;;;;;;;;;;5112513;28;20459;-80
2021/12/16 23:04:34;;;;;;;49.53;25.75;;;;;;;;;;5113025;28;20055;-78
2021/12/16 23:07:26;;;;;;;46.28;24.67;;;;;;;;;;5113941;28;20043;-78
2021/12/16 23:09:59;;;;;;;45.70;24.92;;;;;;;;;;5114118;28;20068;-79
2021/12/16 23:12:29;;;;;;;45.70;24.38;;;;;;;;;;5112614;28;20040;-78
2021/12/16 23:15:05;;;;;;;46.15;23.17;;;;;;;;;;5112397;28;20048;-78
2021/12/16 23:17:58;;;;;;;44.25;23.95;;;;;;;;;;5111828;28;20040;-79
2021/12/16 23:23:42;;;;;;;40.08;22.15;;;;;;;;;;5113440;28;20054;-79
2021/12/16 23:26:35;;;;;;;43.22;23.83;;;;;;;;;;5112327;28;20457;-79
2021/12/16 23:29:05;;;;;;;43.63;23.92;;;;;;;;;;5112241;28;20045;-79
2021/12/16 23:34:49;;;;;;;43.90;23.10;;;;;;;;;;5113373;28;20032;-79
2021/12/16 23:37:21;;;;;;;45.35;24.10;;;;;;;;;;5112775;28;20110;-79
2021/12/16 23:39:50;;;;;;;45.75;23.95;;;;;;;;;;5113301;28;20044;-78
2021/12/16 23:45:35;;;;;;;40.85;22.27;;;;;;;;;;5113599;28;20036;-78
2021/12/16 23:57:14;;;;;;;43.33;22.23;;;;;;;;;;5111823;28;20053;-79
